Time;durP1;ratioP1;P1;durP2;ratioP2;P2;SDS_P1;SDS_P2;PMS_P1;PMS_P2;Temp;Humidity;BMP_temperature;BMP_pressure;BME280_temperature;BME280_humidity;BME280_pressure;Samples;Min_cycle;Max_cycle;Signal;HPM_P1;HPM_P2
2023/10/10 00:00:55;;;;;;;11.83;6.90;;;;;;;;;;5002236;28;20218;-80
2023/10/10 00:03:22;;;;;;;12.60;7.87;;;;;;;;;;4982421;28;20187;-80
2023/10/10 00:05:49;;;;;;;10.90;7.20;;;;;;;;;;5011163;28;20658;-80
2023/10/10 00:08:17;;;;;;;10.63;6.80;;;;;;;;;;4989334;28;20207;-79
2023/10/10 00:10:50;;;;;;;12.77;7.27;;;;;;;;;;5008050;28;20281;-80
2023/10/10 00:13:17;;;;;;;10.43;6.53;;;;;;;;;;4987672;28;20194;-80
2023/10/10 00:15:51;;;;;;;10.10;6.33;;;;;;;;;;4996645;28;20193;-80
2023/10/10 00:18:19;;;;;;;10.90;6.80;;;;;;;;;;4995629;28;20209;-80
2023/10/10 00:21:04;;;;;;;10.43;7.00;;;;;;;;;;5015668;28;20222;-80
2023/10/10 00:23:33;;;;;;;14.47;7.50;;;;;;;;;;5010126;28;20210;-80
2023/10/10 00:26:00;;;;;;;10.87;6.83;;;;;;;;;;5016215;28;20203;-80
2023/10/10 00:28:27;;;;;;;11.53;7.30;;;;;;;;;;5019146;28;20288;-80
2023/10/10 00:30:54;;;;;;;9.53;6.53;;;;;;;;;;5013865;28;20218;-80
2023/10/10 00:33:20;;;;;;;10.77;6.80;;;;;;;;;;4995957;28;20198;-79
2023/10/10 00:35:47;;;;;;;12.93;7.80;;;;;;;;;;4996868;28;20183;-79
2023/10/10 00:38:24;;;;;;;13.27;7.90;;;;;;;;;;5012680;28;20179;-79
2023/10/10 00:40:51;;;;;;;11.83;7.30;;;;;;;;;;4995688;28;20218;-81
2023/10/10 00:43:21;;;;;;;20.77;10.70;;;;;;;;;;4992777;28;20710;-79
2023/10/10 00:45:57;;;;;;;14.93;8.50;;;;;;;;;;5001366;28;20215;-79
2023/10/10 00:48:29;;;;;;;11.47;7.80;;;;;;;;;;4992120;28;20607;-79
2023/10/10 00:51:05;;;;;;;14.53;7.50;;;;;;;;;;4973190;28;20296;-81
2023/10/10 00:53:35;;;;;;;13.93;7.10;;;;;;;;;;5001551;28;20181;-79
2023/10/10 00:56:05;;;;;;;9.57;6.47;;;;;;;;;;4993610;28;20260;-79
2023/10/10 00:58:36;;;;;;;10.93;6.80;;;;;;;;;;5009736;28;20228;-79
2023/10/10 01:01:10;;;;;;;10.33;6.73;;;;;;;;;;5015828;28;20219;-79
2023/10/10 01:03:39;;;;;;;10.63;6.40;;;;;;;;;;5007225;28;20558;-79
2023/10/10 01:06:13;;;;;;;10.83;7.40;;;;;;;;;;4995833;28;20568;-79
2023/10/10 01:08:50;;;;;;;14.33;7.93;;;;;;;;;;4995170;28;20183;-79
2023/10/10 01:11:17;;;;;;;11.00;6.83;;;;;;;;;;4994090;28;20221;-79
2023/10/10 01:13:43;;;;;;;10.10;6.67;;;;;;;;;;5009118;28;20620;-79
2023/10/10 01:16:09;;;;;;;11.57;6.87;;;;;;;;;;5010922;28;20191;-79
2023/10/10 01:18:39;;;;;;;11.50;7.10;;;;;;;;;;4994654;28;20183;-80
2023/10/10 01:21:06;;;;;;;13.30;6.80;;;;;;;;;;5004215;28;20736;-79
2023/10/10 01:23:33;;;;;;;12.93;7.03;;;;;;;;;;5005707;28;20202;-79
2023/10/10 01:26:06;;;;;;;11.57;6.83;;;;;;;;;;5011659;28;20195;-79
2023/10/10 01:28:35;;;;;;;10.57;6.70;;;;;;;;;;4986062;28;20179;-79
2023/10/10 01:31:07;;;;;;;9.47;6.93;;;;;;;;;;4993508;28;20264;-80
2023/10/10 01:33:36;;;;;;;10.30;6.47;;;;;;;;;;5008587;28;20215;-80
2023/10/10 01:36:12;;;;;;;9.47;6.33;;;;;;;;;;4992924;28;20270;-79
2023/10/10 01:38:41;;;;;;;10.40;6.70;;;;;;;;;;5008468;28;20183;-79
2023/10/10 01:44:13;;;;;;;9.33;6.53;;;;;;;;;;4939047;29;20241;-79
2023/10/10 01:46:40;;;;;;;10.60;7.00;;;;;;;;;;4997308;28;20199;-79
2023/10/10 01:49:13;;;;;;;10.00;6.40;;;;;;;;;;5022145;28;20179;-80
2023/10/10 01:51:42;;;;;;;9.63;6.17;;;;;;;;;;5016113;28;20209;-79
2023/10/10 01:54:14;;;;;;;9.13;6.23;;;;;;;;;;4996956;28;20190;-80
2023/10/10 01:56:40;;;;;;;12.17;7.27;;;;;;;;;;5014609;28;20190;-79
2023/10/10 01:59:13;;;;;;;10.50;6.87;;;;;;;;;;4980794;28;20239;-80
2023/10/10 02:01:40;;;;;;;10.40;6.50;;;;;;;;;;4997460;28;20234;-80
2023/10/10 02:04:07;;;;;;;12.17;6.07;;;;;;;;;;4988253;28;20191;-80
2023/10/10 02:06:35;;;;;;;11.07;6.60;;;;;;;;;;5013033;28;20580;-79
2023/10/10 02:09:11;;;;;;;9.83;6.37;;;;;;;;;;5018560;28;20187;-80
2023/10/10 02:11:50;;;;;;;10.37;6.20;;;;;;;;;;5017934;28;20309;-80
2023/10/10 02:14:21;;;;;;;12.07;7.60;;;;;;;;;;5021426;28;20190;-80
2023/10/10 02:16:49;;;;;;;12.17;8.10;;;;;;;;;;5013646;28;20273;-79
2023/10/10 02:19:15;;;;;;;10.83;7.07;;;;;;;;;;5002673;28;20204;-80
2023/10/10 02:21:48;;;;;;;10.73;6.80;;;;;;;;;;5000452;28;20208;-80
2023/10/10 02:26:52;;;;;;;9.17;6.60;;;;;;;;;;5006674;28;20181;-80
2023/10/10 02:29:34;;;;;;;9.97;6.07;;;;;;;;;;5022986;28;20179;-80
2023/10/10 02:32:12;;;;;;;12.00;7.47;;;;;;;;;;4997972;28;20213;-80
2023/10/10 02:34:42;;;;;;;16.40;11.17;;;;;;;;;;5006533;28;20240;-80
2023/10/10 02:42:33;;;;;;;10.53;6.80;;;;;;;;;;4999766;28;20710;-80
2023/10/10 02:45:02;;;;;;;12.03;6.90;;;;;;;;;;5006357;28;20198;-80
2023/10/10 02:47:36;;;;;;;10.27;6.97;;;;;;;;;;5003017;28;20187;-79
2023/10/10 02:50:29;;;;;;;12.33;6.57;;;;;;;;;;4983151;28;20178;-80
2023/10/10 02:53:00;;;;;;;12.33;7.00;;;;;;;;;;5023099;28;20174;-80
2023/10/10 02:55:33;;;;;;;12.90;7.60;;;;;;;;;;5018000;28;20187;-79
2023/10/10 02:57:59;;;;;;;13.00;7.40;;;;;;;;;;5014475;28;20175;-79
2023/10/10 03:02:55;;;;;;;13.03;7.30;;;;;;;;;;4995619;28;20205;-80
2023/10/10 03:05:44;;;;;;;10.00;6.73;;;;;;;;;;4998162;28;20234;-80
2023/10/10 03:08:19;;;;;;;9.73;6.67;;;;;;;;;;4967423;28;21749;-80
2023/10/10 03:10:53;;;;;;;11.57;7.07;;;;;;;;;;5010363;28;20241;-80
2023/10/10 03:19:12;;;;;;;11.70;6.40;;;;;;;;;;5004522;28;20224;-80
2023/10/10 03:24:50;;;;;;;10.83;7.00;;;;;;;;;;4971404;28;21016;-80
2023/10/10 03:29:47;;;;;;;13.20;7.20;;;;;;;;;;4994086;28;20274;-80
2023/10/10 03:32:47;;;;;;;9.90;6.67;;;;;;;;;;5001420;28;20203;-79
2023/10/10 03:35:33;;;;;;;11.80;7.03;;;;;;;;;;5010868;28;20213;-80
2023/10/10 03:38:25;;;;;;;10.40;6.77;;;;;;;;;;5010980;28;20228;-79
2023/10/10 05:25:38;;;;;;;9.77;6.57;;;;;;;;;;5016097;28;20187;-79
2023/10/10 05:28:04;;;;;;;9.83;6.27;;;;;;;;;;5016497;28;20249;-79
2023/10/10 05:30:45;;;;;;;12.70;6.43;;;;;;;;;;5011780;28;20211;-80
2023/10/10 05:33:13;;;;;;;10.00;6.10;;;;;;;;;;4990903;28;20190;-79
2023/10/10 05:35:49;;;;;;;11.00;6.80;;;;;;;;;;5008165;28;20183;-80
2023/10/10 05:38:15;;;;;;;12.97;7.13;;;;;;;;;;5003559;28;20209;-80
2023/10/10 05:40:43;;;;;;;10.43;6.80;;;;;;;;;;5021253;28;20218;-79
2023/10/10 05:43:14;;;;;;;11.23;6.87;;;;;;;;;;5008057;28;20182;-80
2023/10/10 05:45:41;;;;;;;10.97;6.70;;;;;;;;;;4994786;28;20214;-82
2023/10/10 05:48:07;;;;;;;12.00;7.33;;;;;;;;;;5008480;28;20207;-85
2023/10/10 05:50:34;;;;;;;11.00;6.60;;;;;;;;;;4991483;28;20214;-82
2023/10/10 05:53:07;;;;;;;12.97;6.77;;;;;;;;;;4984000;28;20257;-84
2023/10/10 05:55:34;;;;;;;11.90;6.20;;;;;;;;;;4995871;28;20191;-84
2023/10/10 05:58:02;;;;;;;12.13;6.60;;;;;;;;;;4999124;28;20682;-80
2023/10/10 06:00:32;;;;;;;9.17;6.23;;;;;;;;;;4999918;28;20197;-76
2023/10/10 06:02:59;;;;;;;11.60;6.20;;;;;;;;;;5000379;28;20206;-77
2023/10/10 06:05:26;;;;;;;10.97;6.33;;;;;;;;;;4977383;28;20187;-88
2023/10/10 06:07:52;;;;;;;13.83;7.20;;;;;;;;;;4952698;28;20659;-86
2023/10/10 06:10:19;;;;;;;12.33;7.33;;;;;;;;;;4979988;28;20349;-86
2023/10/10 06:12:46;;;;;;;11.77;7.17;;;;;;;;;;4966921;28;20211;-86
2023/10/10 06:15:16;;;;;;;11.60;6.70;;;;;;;;;;4970035;28;20196;-85
2023/10/10 06:17:43;;;;;;;11.07;6.80;;;;;;;;;;4997251;28;20191;-85
2023/10/10 06:20:21;;;;;;;10.77;6.90;;;;;;;;;;5001638;28;20241;-86
2023/10/10 06:22:47;;;;;;;9.80;6.60;;;;;;;;;;4983136;28;20724;-86
2023/10/10 06:25:17;;;;;;;11.13;6.87;;;;;;;;;;5019929;28;20188;-85
2023/10/10 06:27:46;;;;;;;10.13;6.33;;;;;;;;;;4984669;28;20222;-86
2023/10/10 06:30:18;;;;;;;11.23;6.73;;;;;;;;;;5001105;28;20183;-86
2023/10/10 06:32:46;;;;;;;8.77;6.43;;;;;;;;;;4972518;28;20179;-85
2023/10/10 06:37:53;;;;;;;11.70;6.30;;;;;;;;;;4980595;28;20206;-85
2023/10/10 06:40:25;;;;;;;9.93;6.73;;;;;;;;;;4972255;28;20258;-85
2023/10/10 06:43:00;;;;;;;12.00;6.57;;;;;;;;;;4999219;28;20175;-85
2023/10/10 06:45:34;;;;;;;11.83;6.87;;;;;;;;;;5001499;28;20191;-86
2023/10/10 06:48:01;;;;;;;12.60;7.17;;;;;;;;;;4968277;28;20222;-85
2023/10/10 06:50:31;;;;;;;10.83;6.80;;;;;;;;;;4988903;28;20203;-86
2023/10/10 06:53:00;;;;;;;11.77;7.20;;;;;;;;;;4983949;28;20225;-86
2023/10/10 06:55:36;;;;;;;10.80;7.07;;;;;;;;;;4982013;28;20193;-85
2023/10/10 06:58:06;;;;;;;12.67;7.57;;;;;;;;;;4967775;28;20601;-86
2023/10/10 07:00:45;;;;;;;13.40;7.90;;;;;;;;;;4982024;28;20228;-84
2023/10/10 07:03:19;;;;;;;10.53;6.87;;;;;;;;;;5000926;28;20248;-85
2023/10/10 07:05:46;;;;;;;11.27;7.40;;;;;;;;;;4988598;28;20270;-86
2023/10/10 07:08:13;;;;;;;10.60;7.30;;;;;;;;;;4976518;28;20264;-86
2023/10/10 07:10:42;;;;;;;11.80;7.27;;;;;;;;;;4986549;28;20202;-86
2023/10/10 07:13:13;;;;;;;12.37;7.43;;;;;;;;;;5005486;28;20178;-84
2023/10/10 07:15:41;;;;;;;12.20;7.83;;;;;;;;;;4998081;28;20733;-83
2023/10/10 07:18:25;;;;;;;11.40;6.80;;;;;;;;;;5007289;28;20265;-85
2023/10/10 07:21:07;;;;;;;11.33;6.97;;;;;;;;;;4990143;28;20222;-86
2023/10/10 07:23:37;;;;;;;10.87;6.83;;;;;;;;;;5006740;28;20186;-86
2023/10/10 07:26:05;;;;;;;11.23;6.73;;;;;;;;;;5007588;28;20674;-86
2023/10/10 07:28:47;;;;;;;10.37;6.80;;;;;;;;;;4970164;28;20184;-86
2023/10/10 07:31:17;;;;;;;12.23;7.10;;;;;;;;;;5005497;28;20202;-86
2023/10/10 07:33:44;;;;;;;11.33;7.13;;;;;;;;;;5004562;28;20187;-86
2023/10/10 07:36:13;;;;;;;11.43;7.53;;;;;;;;;;4980782;28;20332;-87
2023/10/10 07:38:40;;;;;;;13.23;6.97;;;;;;;;;;4991917;28;20226;-86
2023/10/10 07:41:06;;;;;;;13.03;7.40;;;;;;;;;;5008021;28;20229;-86
2023/10/10 07:43:34;;;;;;;10.03;6.60;;;;;;;;;;4995835;28;20682;-87
2023/10/10 07:46:14;;;;;;;10.80;6.60;;;;;;;;;;5027903;28;20181;-86
2023/10/10 07:48:46;;;;;;;10.43;6.97;;;;;;;;;;4991835;28;20244;-87
2023/10/10 07:51:22;;;;;;;9.50;7.17;;;;;;;;;;4988622;28;20218;-87
2023/10/10 07:53:58;;;;;;;9.13;6.80;;;;;;;;;;4973977;28;20192;-87
2023/10/10 07:56:24;;;;;;;12.33;7.57;;;;;;;;;;5003672;28;20202;-87
2023/10/10 07:58:56;;;;;;;14.33;8.80;;;;;;;;;;4994179;28;20194;-87
2023/10/10 08:01:23;;;;;;;14.63;8.73;;;;;;;;;;4992108;28;20207;-87
2023/10/10 08:03:49;;;;;;;13.77;8.60;;;;;;;;;;4995282;28;20574;-86
2023/10/10 08:06:18;;;;;;;14.00;8.63;;;;;;;;;;4996761;28;20197;-86
2023/10/10 08:08:48;;;;;;;16.37;9.10;;;;;;;;;;4995775;28;20195;-86
2023/10/10 08:11:24;;;;;;;11.27;8.17;;;;;;;;;;4994424;28;20260;-86
2023/10/10 08:13:50;;;;;;;12.07;8.17;;;;;;;;;;4974109;28;20194;-87
2023/10/10 08:16:22;;;;;;;12.87;8.73;;;;;;;;;;4996160;28;20658;-87
2023/10/10 08:21:15;;;;;;;13.70;8.70;;;;;;;;;;5021294;28;20324;-87
2023/10/10 08:23:46;;;;;;;11.60;7.60;;;;;;;;;;4963640;28;20270;-87
2023/10/10 08:26:18;;;;;;;11.93;8.13;;;;;;;;;;5018049;28;20274;-87
2023/10/10 08:28:45;;;;;;;12.93;7.50;;;;;;;;;;5008700;28;20270;-87
2023/10/10 08:31:13;;;;;;;12.37;7.67;;;;;;;;;;5007390;28;20205;-87
2023/10/10 08:33:44;;;;;;;13.37;7.20;;;;;;;;;;4991118;28;20297;-87
2023/10/10 08:36:23;;;;;;;14.53;7.40;;;;;;;;;;5021007;28;20236;-86
2023/10/10 08:39:17;;;;;;;11.53;7.10;;;;;;;;;;4993638;28;20289;-87
2023/10/10 08:41:44;;;;;;;13.83;7.43;;;;;;;;;;4969670;28;20207;-86
2023/10/10 08:44:11;;;;;;;10.73;7.07;;;;;;;;;;5003765;28;20204;-87
2023/10/10 08:46:46;;;;;;;12.63;7.10;;;;;;;;;;4988082;28;20178;-87
2023/10/10 08:49:15;;;;;;;12.43;6.93;;;;;;;;;;4988085;28;20182;-87
2023/10/10 08:51:42;;;;;;;9.70;6.33;;;;;;;;;;5024602;28;20206;-86
2023/10/10 08:54:09;;;;;;;10.93;6.43;;;;;;;;;;5003554;28;20670;-86
2023/10/10 08:57:00;;;;;;;10.37;6.10;;;;;;;;;;5005627;28;20705;-87
2023/10/10 08:59:28;;;;;;;12.17;6.70;;;;;;;;;;4987159;28;20199;-87
2023/10/10 09:02:06;;;;;;;11.87;6.73;;;;;;;;;;5006530;28;20262;-86
2023/10/10 09:04:33;;;;;;;16.30;7.20;;;;;;;;;;4991724;28;20179;-87
2023/10/10 09:07:08;;;;;;;13.33;6.50;;;;;;;;;;5010948;28;20191;-86
2023/10/10 09:09:39;;;;;;;15.40;6.70;;;;;;;;;;5007047;28;20224;-87
2023/10/10 09:12:12;;;;;;;14.27;7.60;;;;;;;;;;5002976;28;20653;-87
2023/10/10 09:14:43;;;;;;;13.93;7.00;;;;;;;;;;4991869;28;20193;-87
2023/10/10 09:17:10;;;;;;;14.33;6.70;;;;;;;;;;4996587;28;20193;-87
2023/10/10 09:19:38;;;;;;;15.13;7.33;;;;;;;;;;4986398;28;20815;-87
2023/10/10 09:22:12;;;;;;;13.37;7.10;;;;;;;;;;4982146;28;20219;-86
2023/10/10 09:24:41;;;;;;;12.70;7.13;;;;;;;;;;4974928;28;20183;-87
2023/10/10 09:27:21;;;;;;;13.90;7.03;;;;;;;;;;5010792;28;20198;-85
2023/10/10 09:29:54;;;;;;;11.50;6.70;;;;;;;;;;4978166;28;20240;-84
2023/10/10 09:32:27;;;;;;;20.67;10.10;;;;;;;;;;4997049;28;20210;-79
2023/10/10 09:34:54;;;;;;;15.20;8.60;;;;;;;;;;5017785;28;20190;-79
2023/10/10 09:37:29;;;;;;;11.37;6.73;;;;;;;;;;5008101;28;20225;-79
2023/10/10 09:39:56;;;;;;;17.40;10.23;;;;;;;;;;5008157;28;20206;-83
2023/10/10 09:42:29;;;;;;;14.20;7.00;;;;;;;;;;5003397;28;20596;-80
2023/10/10 09:47:55;;;;;;;10.93;6.80;;;;;;;;;;5017720;28;20183;-80
2023/10/10 09:52:58;;;;;;;11.10;6.13;;;;;;;;;;4982716;28;20190;-83
2023/10/10 09:55:39;;;;;;;12.30;6.50;;;;;;;;;;5023413;28;20554;-82
2023/10/10 10:03:49;;;;;;;10.93;6.03;;;;;;;;;;5023812;28;20311;-85
2023/10/10 10:09:08;;;;;;;10.80;6.03;;;;;;;;;;5000084;28;20452;-85
2023/10/10 10:11:43;;;;;;;10.67;5.73;;;;;;;;;;4988079;28;20227;-84
2023/10/10 10:14:17;;;;;;;12.10;6.27;;;;;;;;;;4991778;28;20178;-85
2023/10/10 10:17:18;;;;;;;12.13;5.70;;;;;;;;;;5005499;28;20209;-85
2023/10/10 10:19:45;;;;;;;11.13;6.00;;;;;;;;;;4979013;28;20195;-84
2023/10/10 10:22:18;;;;;;;10.13;5.77;;;;;;;;;;5006035;28;20286;-85
2023/10/10 10:24:45;;;;;;;9.87;5.80;;;;;;;;;;4992280;28;20203;-85
2023/10/10 10:27:24;;;;;;;11.13;5.97;;;;;;;;;;4987551;28;20677;-85
2023/10/10 10:29:54;;;;;;;9.97;5.90;;;;;;;;;;4992112;28;20652;-85
2023/10/10 10:32:24;;;;;;;9.97;5.83;;;;;;;;;;4996885;28;20293;-85
2023/10/10 10:34:55;;;;;;;11.10;5.77;;;;;;;;;;5001101;28;20682;-85
2023/10/10 10:37:23;;;;;;;11.60;5.73;;;;;;;;;;5004915;28;20182;-85
2023/10/10 10:40:22;;;;;;;9.93;5.50;;;;;;;;;;5002021;28;20271;-85
2023/10/10 10:42:48;;;;;;;10.93;6.07;;;;;;;;;;4978269;28;20269;-85
2023/10/10 10:45:38;;;;;;;13.83;5.90;;;;;;;;;;4983418;28;20281;-85
2023/10/10 10:48:09;;;;;;;12.37;5.83;;;;;;;;;;4977993;28;20702;-85
2023/10/10 10:50:43;;;;;;;11.60;5.73;;;;;;;;;;5006879;28;20206;-85
2023/10/10 10:53:30;;;;;;;13.43;5.50;;;;;;;;;;4996790;28;20225;-84
2023/10/10 10:56:37;;;;;;;11.37;5.70;;;;;;;;;;4959408;28;20191;-85
2023/10/10 11:01:22;;;;;;;16.90;6.20;;;;;;;;;;4986847;28;22229;-85
2023/10/10 11:03:54;;;;;;;10.10;5.20;;;;;;;;;;4984868;28;20210;-81
2023/10/10 11:06:20;;;;;;;11.13;6.03;;;;;;;;;;4983726;28;20186;-86
2023/10/10 11:11:36;;;;;;;14.83;6.07;;;;;;;;;;5015216;28;20226;-81
2023/10/10 11:14:04;;;;;;;13.33;6.40;;;;;;;;;;4985154;28;20278;-83
2023/10/10 11:16:37;;;;;;;9.70;5.00;;;;;;;;;;5007101;28;20187;-81
2023/10/10 11:19:12;;;;;;;12.43;5.73;;;;;;;;;;4975937;28;20565;-80
2023/10/10 11:21:48;;;;;;;12.73;5.73;;;;;;;;;;5013368;28;20213;-83
2023/10/10 11:24:15;;;;;;;10.10;5.57;;;;;;;;;;4991621;28;20658;-83
2023/10/10 11:26:44;;;;;;;12.63;5.40;;;;;;;;;;5005550;28;20182;-82
2023/10/10 11:29:27;;;;;;;11.43;5.80;;;;;;;;;;5000813;28;20186;-79
2023/10/10 11:32:11;;;;;;;9.33;5.67;;;;;;;;;;5000553;28;20203;-84
2023/10/10 11:34:47;;;;;;;12.73;6.10;;;;;;;;;;4990646;28;20273;-82
2023/10/10 11:37:14;;;;;;;12.67;5.80;;;;;;;;;;5001440;28;20191;-82
2023/10/10 11:39:47;;;;;;;8.63;5.30;;;;;;;;;;5025000;28;20194;-82
2023/10/10 11:42:33;;;;;;;9.60;5.47;;;;;;;;;;5011635;28;20211;-81
2023/10/10 11:45:19;;;;;;;12.90;5.50;;;;;;;;;;5011072;28;20595;-81
2023/10/10 11:47:46;;;;;;;14.43;5.83;;;;;;;;;;5007390;28;20189;-81
2023/10/10 11:50:22;;;;;;;13.57;5.63;;;;;;;;;;5013312;28;20239;-85
2023/10/10 11:52:58;;;;;;;9.77;5.73;;;;;;;;;;4992572;28;20656;-86
2023/10/10 11:55:25;;;;;;;12.83;6.00;;;;;;;;;;5014283;28;20591;-87
2023/10/10 11:57:57;;;;;;;12.83;5.87;;;;;;;;;;5009863;28;20260;-87
2023/10/10 12:00:43;;;;;;;10.80;5.70;;;;;;;;;;5015279;28;20189;-87
2023/10/10 12:03:11;;;;;;;13.13;5.63;;;;;;;;;;5012800;28;20224;-87
2023/10/10 12:05:50;;;;;;;10.63;5.33;;;;;;;;;;4994719;28;20614;-86
2023/10/10 12:08:22;;;;;;;12.53;5.70;;;;;;;;;;5019884;28;20185;-86
2023/10/10 12:10:52;;;;;;;12.07;5.53;;;;;;;;;;5004177;28;20207;-87
2023/10/10 12:13:33;;;;;;;11.00;5.50;;;;;;;;;;5000206;28;20601;-87
2023/10/10 12:16:07;;;;;;;11.00;5.23;;;;;;;;;;4994232;28;20206;-85
2023/10/10 12:18:34;;;;;;;9.30;5.60;;;;;;;;;;5015216;28;20193;-85
2023/10/10 12:21:01;;;;;;;12.30;5.43;;;;;;;;;;5019914;28;20211;-85
2023/10/10 12:23:31;;;;;;;13.03;5.60;;;;;;;;;;5030094;28;20244;-85
2023/10/10 12:25:59;;;;;;;9.37;5.13;;;;;;;;;;4970805;28;20286;-84
2023/10/10 12:28:26;;;;;;;13.87;5.37;;;;;;;;;;4980212;28;20187;-85
2023/10/10 12:31:02;;;;;;;11.03;5.33;;;;;;;;;;4993204;28;20298;-80
2023/10/10 12:33:30;;;;;;;10.47;5.60;;;;;;;;;;5001752;28;20604;-83
2023/10/10 12:35:57;;;;;;;11.97;5.90;;;;;;;;;;5004495;28;20213;-84
2023/10/10 12:38:23;;;;;;;15.80;5.60;;;;;;;;;;4992248;28;20202;-83
2023/10/10 12:40:53;;;;;;;11.67;5.40;;;;;;;;;;4990694;28;20203;-82
2023/10/10 12:43:20;;;;;;;9.37;5.23;;;;;;;;;;5012392;28;20195;-83
2023/10/10 12:45:46;;;;;;;9.17;5.17;;;;;;;;;;5015344;28;20179;-83
2023/10/10 12:48:20;;;;;;;12.77;5.63;;;;;;;;;;5013742;28;20190;-83
2023/10/10 12:50:53;;;;;;;10.43;5.50;;;;;;;;;;4997504;28;20257;-83
2023/10/10 12:53:20;;;;;;;10.60;5.63;;;;;;;;;;5017465;28;20669;-84
2023/10/10 12:55:51;;;;;;;11.00;5.33;;;;;;;;;;5013586;28;20671;-83
2023/10/10 12:58:20;;;;;;;10.60;5.30;;;;;;;;;;4985759;28;20206;-83
2023/10/10 13:00:52;;;;;;;12.20;5.60;;;;;;;;;;4988271;28;20713;-80
2023/10/10 13:03:20;;;;;;;11.53;5.60;;;;;;;;;;5014568;28;20189;-82
2023/10/10 13:05:54;;;;;;;9.80;4.97;;;;;;;;;;5022486;28;20189;-82
2023/10/10 13:08:22;;;;;;;10.50;5.63;;;;;;;;;;5018464;28;20174;-82
2023/10/10 13:10:55;;;;;;;11.00;5.17;;;;;;;;;;5020961;28;20257;-84
2023/10/10 13:13:26;;;;;;;11.57;5.30;;;;;;;;;;5007479;28;20630;-82
2023/10/10 13:16:22;;;;;;;10.37;5.43;;;;;;;;;;5001974;28;20179;-80
2023/10/10 13:19:06;;;;;;;9.33;5.40;;;;;;;;;;5024252;28;20179;-82
2023/10/10 13:21:42;;;;;;;10.73;5.17;;;;;;;;;;5030222;28;20580;-82
2023/10/10 13:24:13;;;;;;;10.03;5.60;;;;;;;;;;5024722;28;20217;-82
2023/10/10 13:26:41;;;;;;;12.07;5.33;;;;;;;;;;5006706;28;20186;-82
2023/10/10 13:29:07;;;;;;;8.20;5.40;;;;;;;;;;4993828;28;20581;-84
2023/10/10 13:31:34;;;;;;;10.70;5.73;;;;;;;;;;5019608;28;20277;-82
2023/10/10 13:34:00;;;;;;;8.43;5.73;;;;;;;;;;5027104;28;20175;-83
2023/10/10 13:36:27;;;;;;;9.40;6.27;;;;;;;;;;5014927;28;20237;-82
2023/10/10 13:38:58;;;;;;;8.93;6.20;;;;;;;;;;5025646;28;20183;-82
2023/10/10 13:41:27;;;;;;;12.97;5.63;;;;;;;;;;5026827;28;20270;-84
2023/10/10 13:43:59;;;;;;;10.40;5.70;;;;;;;;;;5017076;28;20675;-82
2023/10/10 13:46:26;;;;;;;13.53;7.93;;;;;;;;;;5023891;28;20198;-82
2023/10/10 13:48:53;;;;;;;10.70;6.50;;;;;;;;;;5018887;28;20209;-83
2023/10/10 13:51:20;;;;;;;10.10;6.37;;;;;;;;;;4980729;28;20316;-83
2023/10/10 13:53:47;;;;;;;8.97;5.50;;;;;;;;;;5022309;28;20262;-82
2023/10/10 13:56:16;;;;;;;10.20;6.80;;;;;;;;;;5028724;28;20796;-82
2023/10/10 13:58:47;;;;;;;10.60;6.13;;;;;;;;;;5011643;28;20198;-83
2023/10/10 14:01:18;;;;;;;8.23;5.90;;;;;;;;;;4999424;28;20217;-83
2023/10/10 14:03:48;;;;;;;8.23;5.50;;;;;;;;;;5001724;28;20174;-84
2023/10/10 14:06:16;;;;;;;7.67;5.40;;;;;;;;;;4999944;28;20266;-86
2023/10/10 14:08:44;;;;;;;9.23;5.97;;;;;;;;;;5022141;28;20257;-83
2023/10/10 14:11:20;;;;;;;12.23;5.93;;;;;;;;;;5013386;28;20211;-83
2023/10/10 14:13:50;;;;;;;11.07;6.20;;;;;;;;;;5000882;28;20181;-83
2023/10/10 14:16:17;;;;;;;10.87;6.50;;;;;;;;;;5017782;28;20194;-83
2023/10/10 14:18:47;;;;;;;9.67;6.23;;;;;;;;;;5026382;28;20214;-82
2023/10/10 14:21:14;;;;;;;11.83;6.50;;;;;;;;;;5024125;28;20222;-82
2023/10/10 14:23:41;;;;;;;13.30;6.83;;;;;;;;;;5013808;28;20536;-83
2023/10/10 14:26:14;;;;;;;10.33;6.03;;;;;;;;;;4978357;28;20269;-83
2023/10/10 14:28:50;;;;;;;12.27;6.30;;;;;;;;;;5017840;28;20272;-82
2023/10/10 14:31:42;;;;;;;11.63;6.43;;;;;;;;;;5010920;28;20209;-84
2023/10/10 14:34:10;;;;;;;8.77;5.93;;;;;;;;;;5009575;28;20243;-83
2023/10/10 14:36:39;;;;;;;11.50;6.40;;;;;;;;;;5028546;28;20190;-83
2023/10/10 14:39:08;;;;;;;12.20;6.67;;;;;;;;;;5001073;28;20278;-83
2023/10/10 14:41:34;;;;;;;11.30;6.47;;;;;;;;;;4984103;28;20299;-83
2023/10/10 14:44:03;;;;;;;9.83;6.37;;;;;;;;;;4992175;28;20203;-85
2023/10/10 14:46:32;;;;;;;15.50;6.57;;;;;;;;;;4994654;28;20203;-84
2023/10/10 14:49:06;;;;;;;11.23;6.37;;;;;;;;;;5024100;28;20186;-86
2023/10/10 14:51:36;;;;;;;10.63;6.30;;;;;;;;;;5026744;28;20770;-83
2023/10/10 14:54:06;;;;;;;9.17;5.70;;;;;;;;;;5025927;28;20245;-83
2023/10/10 14:56:37;;;;;;;10.90;5.97;;;;;;;;;;5019080;28;20288;-82
2023/10/10 14:59:04;;;;;;;11.53;5.57;;;;;;;;;;5026739;28;20189;-84
2023/10/10 15:01:34;;;;;;;11.60;6.30;;;;;;;;;;4994253;28;20225;-83
2023/10/10 15:04:04;;;;;;;12.27;6.50;;;;;;;;;;5030359;28;20178;-82
2023/10/10 15:06:31;;;;;;;8.90;6.07;;;;;;;;;;5016075;28;20210;-82
2023/10/10 15:08:58;;;;;;;11.93;6.37;;;;;;;;;;5035198;28;20739;-84
2023/10/10 15:11:27;;;;;;;11.17;6.30;;;;;;;;;;5030957;28;20299;-82
2023/10/10 15:13:54;;;;;;;10.13;5.60;;;;;;;;;;5028954;28;20281;-85
2023/10/10 15:16:23;;;;;;;10.23;6.00;;;;;;;;;;5034446;28;20199;-82
2023/10/10 15:18:52;;;;;;;11.93;5.67;;;;;;;;;;5012040;28;20272;-84
2023/10/10 15:21:21;;;;;;;10.43;5.70;;;;;;;;;;5012363;28;20225;-85
2023/10/10 15:23:47;;;;;;;10.70;5.90;;;;;;;;;;5027315;28;20206;-85
2023/10/10 15:26:17;;;;;;;14.47;5.87;;;;;;;;;;4991020;28;20687;-83
2023/10/10 15:28:44;;;;;;;11.07;5.93;;;;;;;;;;4990776;28;20218;-84
2023/10/10 15:31:12;;;;;;;10.20;5.50;;;;;;;;;;4985141;28;20303;-88
2023/10/10 15:33:43;;;;;;;11.27;5.70;;;;;;;;;;5016290;28;20200;-84
2023/10/10 15:36:11;;;;;;;9.23;5.27;;;;;;;;;;5005317;28;20203;-85
2023/10/10 15:38:40;;;;;;;12.33;5.60;;;;;;;;;;5004088;28;20184;-85
2023/10/10 15:41:27;;;;;;;8.33;5.33;;;;;;;;;;5009581;28;20233;-84
2023/10/10 15:43:53;;;;;;;10.07;5.90;;;;;;;;;;5002059;28;20222;-81
2023/10/10 15:46:23;;;;;;;9.67;5.80;;;;;;;;;;4976146;28;20195;-89
2023/10/10 15:48:49;;;;;;;9.87;5.50;;;;;;;;;;4988488;28;20180;-83
2023/10/10 15:51:17;;;;;;;10.33;5.50;;;;;;;;;;5025666;28;20218;-82
2023/10/10 15:53:43;;;;;;;7.87;5.40;;;;;;;;;;5014502;28;20270;-86
2023/10/10 15:56:16;;;;;;;9.77;5.67;;;;;;;;;;5005067;28;20203;-83
2023/10/10 15:58:50;;;;;;;10.77;5.93;;;;;;;;;;4990774;28;20691;-83
2023/10/10 16:01:21;;;;;;;11.20;5.43;;;;;;;;;;5005742;28;20684;-83
2023/10/10 16:03:51;;;;;;;9.57;5.60;;;;;;;;;;4978406;28;20219;-82
2023/10/10 16:06:19;;;;;;;10.50;5.60;;;;;;;;;;4974546;28;20195;-83
2023/10/10 16:08:49;;;;;;;10.80;6.00;;;;;;;;;;4978813;28;20180;-83
2023/10/10 16:11:19;;;;;;;11.87;6.07;;;;;;;;;;4992331;28;20219;-83
2023/10/10 16:13:49;;;;;;;12.67;6.13;;;;;;;;;;5011980;28;20192;-83
2023/10/10 16:16:18;;;;;;;12.33;5.67;;;;;;;;;;4990120;28;20190;-84
2023/10/10 16:18:48;;;;;;;16.50;6.30;;;;;;;;;;4998218;28;20530;-82
2023/10/10 16:21:15;;;;;;;11.23;6.10;;;;;;;;;;4957629;28;20223;-85
2023/10/10 16:23:45;;;;;;;13.13;6.00;;;;;;;;;;4968002;28;20788;-83
2023/10/10 16:26:12;;;;;;;11.80;5.77;;;;;;;;;;4996065;28;20208;-85
2023/10/10 16:28:38;;;;;;;15.17;6.37;;;;;;;;;;5018174;28;20273;-86
2023/10/10 16:31:07;;;;;;;8.83;5.50;;;;;;;;;;5003252;28;20210;-87
2023/10/10 16:33:37;;;;;;;9.33;5.87;;;;;;;;;;4981246;28;20191;-86
2023/10/10 16:36:17;;;;;;;14.40;5.73;;;;;;;;;;4966368;28;20191;-86
2023/10/10 16:38:49;;;;;;;11.70;5.80;;;;;;;;;;4978105;28;20318;-86
2023/10/10 16:41:19;;;;;;;9.37;5.37;;;;;;;;;;4994436;28;20683;-85
2023/10/10 16:43:49;;;;;;;14.30;6.10;;;;;;;;;;4977677;28;20188;-88
2023/10/10 16:46:16;;;;;;;9.27;5.87;;;;;;;;;;4985063;28;20180;-79
2023/10/10 16:48:45;;;;;;;9.13;6.13;;;;;;;;;;5021274;28;20194;-86
2023/10/10 16:51:13;;;;;;;12.50;6.13;;;;;;;;;;4984460;28;20218;-85
2023/10/10 16:53:40;;;;;;;21.50;16.13;;;;;;;;;;4984064;28;20197;-85
2023/10/10 16:56:07;;;;;;;16.17;12.07;;;;;;;;;;4999151;28;20186;-84
2023/10/10 16:58:34;;;;;;;21.10;13.97;;;;;;;;;;5006915;28;20237;-83
2023/10/10 17:01:03;;;;;;;18.53;15.00;;;;;;;;;;5016048;28;20745;-85
2023/10/10 17:03:33;;;;;;;25.10;21.57;;;;;;;;;;5006634;28;20180;-87
2023/10/10 17:06:05;;;;;;;17.97;13.30;;;;;;;;;;4962102;28;20183;-85
2023/10/10 17:08:32;;;;;;;13.37;9.30;;;;;;;;;;4980609;28;20185;-84
2023/10/10 17:10:59;;;;;;;15.53;8.67;;;;;;;;;;5009737;28;20264;-85
2023/10/10 17:13:25;;;;;;;14.10;9.47;;;;;;;;;;4986184;28;20267;-84
2023/10/10 17:15:55;;;;;;;13.30;8.73;;;;;;;;;;4982015;28;20176;-83
2023/10/10 17:18:22;;;;;;;14.90;8.10;;;;;;;;;;5002080;28;20187;-84
2023/10/10 17:20:56;;;;;;;14.23;8.10;;;;;;;;;;5000483;28;20292;-83
2023/10/10 17:23:24;;;;;;;15.60;6.90;;;;;;;;;;4992001;28;20190;-84
2023/10/10 17:25:50;;;;;;;15.27;6.87;;;;;;;;;;4983625;28;20180;-83
2023/10/10 17:28:17;;;;;;;11.63;6.60;;;;;;;;;;5026790;28;20179;-86